Drasco, Texas
Current Conditions -  °F | °C
As of 12:58 AM on Wednesday 26 Nov 2014 (Local Time) from KDYS Reporting Station
Clear Clear  
Wind Chill: 45°   Ceiling: Unl
Heat Index: 49°   Visibility: 10mi
Dew Point: 19°   Wind: 13mph
Humidity: 30%   Direction: 210°SSW
Pressure: 30.06"   Gusts: NA
Location:  31.975°N, 99.9034°W
Report Text: KDYS 260658Z AUTO 21011KT 10SM CLR 10/M07 A3006 RMK AO2 SLP169 T00971074 $
Loading
Personal Weather Stations






























Interactive Weather Map New forecast layout! Learn more

10-Day Weather Forecast

Advertisements
Track Severe Weather on mobile